createdAt,value
2019-05-17T00:04:16.619Z,100948.63
2019-05-17T00:09:20.791Z,100946.28
2019-05-17T00:14:26.997Z,100941.73
2019-05-17T00:19:30.897Z,100947.28
2019-05-17T00:24:36.942Z,100936.28
2019-05-17T00:29:40.647Z,100938.81
2019-05-17T00:34:46.868Z,100927.66
2019-05-17T00:39:50.354Z,100926.25
2019-05-17T00:44:56.453Z,100923.75
2019-05-17T00:50:01.003Z,100913.59
2019-05-17T00:55:06.735Z,100924.43
2019-05-17T01:00:11.326Z,100910.14
2019-05-17T01:05:17.081Z,100908.89
2019-05-17T01:10:21.410Z,100905.55
2019-05-17T01:15:27.310Z,100905.75
2019-05-17T01:20:31.442Z,100908.57
2019-05-17T01:25:36.738Z,100909.47
2019-05-17T01:30:40.940Z,100900.02
2019-05-17T01:35:46.615Z,100903.02
2019-05-17T01:40:50.735Z,100899.28
2019-05-17T01:45:57.274Z,100899.30
2019-05-17T01:51:00.820Z,100899.22
2019-05-17T01:56:06.350Z,100893.41
2019-05-17T02:01:10.859Z,100886.88
2019-05-17T02:06:16.548Z,100886.75
2019-05-17T02:11:21.096Z,100880.05
2019-05-17T02:16:26.772Z,100875.52
2019-05-17T02:21:30.874Z,100874.17
2019-05-17T02:26:37.293Z,100873.81
2019-05-17T02:31:43.468Z,100879.82
2019-05-17T02:36:46.685Z,100876.96
2019-05-17T02:41:53.342Z,100869.36
2019-05-17T02:46:56.752Z,100872.15
2019-05-17T02:52:03.270Z,100871.34
2019-05-17T02:57:07.053Z,100872.13
2019-05-17T03:02:12.729Z,100873.53
2019-05-17T03:07:17.008Z,100870.96
2019-05-17T03:12:23.678Z,100882.89
2019-05-17T03:17:27.069Z,100883.57
2019-05-17T03:22:33.240Z,100881.84
2019-05-17T03:27:36.872Z,100880.91
2019-05-17T03:32:47.202Z,100888.16
2019-05-17T03:37:47.844Z,100886.99
2019-05-17T03:42:53.890Z,100878.24
2019-05-17T03:47:58.263Z,100884.27
2019-05-17T03:53:02.609Z,100880.91
2019-05-17T03:58:06.669Z,100878.89
2019-05-17T04:03:13.629Z,100881.63
2019-05-17T04:08:16.777Z,100875.29
2019-05-17T04:13:23.453Z,100886.31
2019-05-17T04:18:27.862Z,100886.70
2019-05-17T04:23:33.979Z,100887.19
2019-05-17T04:28:38.268Z,100881.28
2019-05-17T04:33:42.984Z,100886.77
2019-05-17T04:38:47.362Z,100881.28
2019-05-17T04:43:53.106Z,100879.54
2019-05-17T04:48:57.377Z,100861.11
2019-05-17T04:54:03.318Z,100861.11
2019-05-17T04:59:07.725Z,100860.06
2019-05-17T05:04:15.043Z,100859.74
2019-05-17T05:09:17.586Z,100852.45
2019-05-17T05:14:23.345Z,100854.22
2019-05-17T05:19:27.875Z,100841.55
2019-05-17T05:24:32.410Z,100837.70
2019-05-17T05:29:36.718Z,100838.06
2019-05-17T05:34:42.973Z,100826.35
2019-05-17T05:39:47.213Z,100828.09
2019-05-17T05:44:52.262Z,100827.94
2019-05-17T05:49:57.343Z,100834.09
2019-05-17T05:55:02.050Z,100830.63
2019-05-17T06:00:07.317Z,100827.60
2019-05-17T06:05:14.926Z,100826.89
2019-05-17T06:10:18.471Z,100824.98
2019-05-17T06:15:22.799Z,100827.60
2019-05-17T06:20:26.902Z,100832.39
2019-05-17T06:25:34.209Z,100826.17
2019-05-17T06:30:36.727Z,100821.72
2019-05-17T06:35:42.245Z,100817.91
2019-05-17T06:40:46.857Z,100818.98
2019-05-17T06:45:52.185Z,100819.06
2019-05-17T06:50:56.732Z,100822.19
2019-05-17T06:56:02.622Z,100817.72
2019-05-17T07:01:06.555Z,100808.02
2019-05-17T07:06:12.185Z,100797.28
2019-05-17T07:11:16.287Z,100796.25
2019-05-17T07:16:20.310Z,100792.52
2019-05-17T07:21:24.344Z,100783.33
2019-05-17T07:26:30.228Z,100768.50
2019-05-17T07:31:34.505Z,100752.92
2019-05-17T07:36:39.733Z,100761.38
2019-05-17T07:41:43.997Z,100759.63
2019-05-17T07:46:51.745Z,100749.25
2019-05-17T07:51:54.257Z,100743.74
2019-05-17T07:57:00.269Z,100743.20
2019-05-17T08:02:04.265Z,100740.23
2019-05-17T08:07:10.755Z,100742.95
2019-05-17T08:12:14.117Z,100732.45
2019-05-17T08:17:19.820Z,100726.51
2019-05-17T08:22:24.168Z,100723.94
2019-05-17T08:27:29.716Z,100724.00
2019-05-17T08:32:34.219Z,100729.27
2019-05-17T08:37:41.878Z,100730.08
2019-05-17T08:42:44.382Z,100715.37
2019-05-17T08:47:50.079Z,100708.19
2019-05-17T08:52:54.223Z,100707.27
2019-05-17T08:58:00.863Z,100699.42
2019-05-17T09:03:04.808Z,100689.13
2019-05-17T09:08:10.455Z,100687.19
2019-05-17T09:13:15.097Z,100673.66
2019-05-17T09:18:21.551Z,100684.84
2019-05-17T09:23:25.592Z,100668.52
2019-05-17T09:28:30.174Z,100663.67
2019-05-17T09:33:35.523Z,100663.33
2019-05-17T09:38:40.413Z,100662.54
2019-05-17T09:43:44.830Z,100663.05
2019-05-17T09:48:50.558Z,100650.38
2019-05-17T09:53:55.618Z,100651.52
2019-05-17T09:59:00.393Z,100652.29
2019-05-17T10:04:04.542Z,100653.45
2019-05-17T10:09:09.606Z,100640.54
2019-05-17T10:14:24.601Z,100637.88
2019-05-17T10:19:21.892Z,100635.12
2019-05-17T10:24:36.002Z,100633.98
2019-05-17T10:29:31.114Z,100626.81
2019-05-17T10:34:35.763Z,100633.05
2019-05-17T10:39:41.721Z,100637.30
2019-05-17T10:44:47.852Z,100633.64
2019-05-17T10:49:52.678Z,100630.12
2019-05-17T10:54:56.798Z,100623.91
2019-05-17T11:00:01.306Z,100627.22
2019-05-17T11:05:05.450Z,100632.34
2019-05-17T11:10:11.775Z,100629.90
2019-05-17T11:15:15.711Z,100635.06
2019-05-17T11:20:20.605Z,100633.09
2019-05-17T11:25:24.615Z,100638.89
2019-05-17T11:30:28.732Z,100645.30
2019-05-17T11:35:32.730Z,100640.31
2019-05-17T11:40:37.111Z,100634.97
2019-05-17T11:45:41.631Z,100638.66
2019-05-17T11:50:45.672Z,100627.36
2019-05-17T11:55:49.710Z,100624.16
2019-05-17T12:00:53.737Z,100627.21
2019-05-17T12:05:58.021Z,100621.73
2019-05-17T12:11:02.226Z,100616.40
2019-05-17T12:16:06.687Z,100608.21
2019-05-17T12:21:10.731Z,100600.84
2019-05-17T12:26:14.836Z,100593.16
2019-05-17T12:31:19.143Z,100600.09
2019-05-17T12:36:23.519Z,100586.84
2019-05-17T12:41:28.295Z,100588.03
2019-05-17T12:46:32.434Z,100581.52
2019-05-17T12:51:37.182Z,100583.11
2019-05-17T12:56:41.495Z,100577.16
2019-05-17T13:01:45.963Z,100573.34
2019-05-17T13:06:50.091Z,100559.06
2019-05-17T13:11:54.505Z,100558.30
2019-05-17T13:16:59.023Z,100559.53
2019-05-17T13:22:03.176Z,100555.47
2019-05-17T13:27:07.562Z,100548.09
2019-05-17T13:32:11.679Z,100555.36
2019-05-17T13:37:15.676Z,100557.08
2019-05-17T13:42:19.741Z,100552.32
2019-05-17T13:47:23.788Z,100541.89
2019-05-17T13:52:27.810Z,100530.19
2019-05-17T13:57:32.129Z,100525.17
2019-05-17T14:02:36.148Z,100530.88
2019-05-17T14:07:40.185Z,100516.16
2019-05-17T14:12:44.292Z,100519.98
2019-05-17T14:17:48.316Z,100518.30
2019-05-17T14:22:52.387Z,100515.36
2019-05-17T14:27:57.134Z,100507.18
2019-05-17T14:33:01.704Z,100511.03
2019-05-17T14:38:05.687Z,100501.83
2019-05-17T14:43:09.745Z,100504.33
2019-05-17T14:48:13.843Z,100497.48
2019-05-17T14:53:18.222Z,100496.38
2019-05-17T14:58:22.367Z,100487.75
2019-05-17T15:03:26.518Z,100486.66
2019-05-17T15:08:30.651Z,100485.92
2019-05-17T15:13:34.674Z,100480.02
2019-05-17T15:18:38.791Z,100477.66
2019-05-17T15:23:42.831Z,100471.19
2019-05-17T15:28:46.969Z,100476.63
2019-05-17T15:33:50.965Z,100467.25
2019-05-17T15:38:55.046Z,100463.85
2019-05-17T15:43:59.123Z,100460.55
2019-05-17T15:49:03.428Z,100450.97
2019-05-17T15:54:07.593Z,100439.80
2019-05-17T15:59:11.983Z,100437.05
2019-05-17T16:04:16.081Z,100434.77
2019-05-17T16:09:20.567Z,100428.84
2019-05-17T16:14:24.618Z,100431.52
2019-05-17T16:19:29.204Z,100424.94
2019-05-17T16:24:33.189Z,100422.87
2019-05-17T16:29:37.212Z,100415.17
2019-05-17T16:34:41.212Z,100416.44
2019-05-17T16:39:45.253Z,100417.38
2019-05-17T16:44:49.448Z,100415.00
2019-05-17T16:49:53.477Z,100419.14
2019-05-17T16:54:58.174Z,100415.25
2019-05-17T17:00:02.325Z,100418.44
2019-05-17T17:05:06.404Z,100416.08
2019-05-17T17:10:10.522Z,100409.23
2019-05-17T17:15:15.258Z,100406.66
2019-05-17T17:20:19.731Z,100409.65
2019-05-17T17:25:27.821Z,100415.53
2019-05-17T17:30:31.984Z,100402.66
2019-05-17T17:35:36.051Z,100407.01
2019-05-17T17:40:40.424Z,100405.89
2019-05-17T17:45:44.878Z,100406.73
2019-05-17T17:50:49.317Z,100412.17
2019-05-17T17:55:53.346Z,100414.53
2019-05-17T18:00:57.446Z,100412.08
2019-05-17T18:06:01.613Z,100415.55
2019-05-17T18:11:05.975Z,100418.29
2019-05-17T18:16:09.997Z,100416.20
2019-05-17T18:21:14.799Z,100410.47
2019-05-17T18:26:19.219Z,100417.19
2019-05-17T18:31:25.454Z,100412.09
2019-05-17T18:36:31.785Z,100414.50
2019-05-17T18:41:35.827Z,100423.72
2019-05-17T18:46:39.925Z,100422.24
2019-05-17T18:51:44.004Z,100431.41
2019-05-17T18:56:48.103Z,100431.92
2019-05-17T19:01:52.162Z,100437.78
2019-05-17T19:06:56.367Z,100446.23
2019-05-17T19:12:13.053Z,100455.05
2019-05-17T19:17:18.601Z,100460.48
2019-05-17T19:22:22.761Z,100468.81
2019-05-17T19:27:29.190Z,100469.61
2019-05-17T19:32:34.225Z,100468.06
2019-05-17T19:37:39.064Z,100470.56
2019-05-17T19:42:45.021Z,100472.21
2019-05-17T19:47:50.693Z,100467.96
2019-05-17T19:52:56.729Z,100475.49
2019-05-17T19:58:02.365Z,100470.44
2019-05-17T20:03:07.841Z,100467.33
2019-05-17T20:08:11.982Z,100470.87
2019-05-17T20:13:18.130Z,100473.34
2019-05-17T20:18:22.193Z,100467.11
2019-05-17T20:23:37.628Z,100476.84
2019-05-17T20:28:47.964Z,100469.25
2019-05-17T20:33:56.350Z,100471.59
2019-05-17T20:39:07.461Z,100467.13
2019-05-17T20:44:14.887Z,100469.80
2019-05-17T20:49:26.896Z,100461.99
2019-05-17T20:54:36.701Z,100457.92
2019-05-17T20:59:48.532Z,100458.25
2019-05-17T21:05:04.090Z,100457.87
2019-05-17T21:10:18.136Z,100460.06
2019-05-17T21:15:47.526Z,100459.88
2019-05-17T21:20:44.816Z,100450.22
2019-05-17T21:25:53.099Z,100449.27
2019-05-17T21:30:58.818Z,100446.67
2019-05-17T21:36:07.228Z,100448.97
2019-05-17T21:41:14.116Z,100447.25
2019-05-17T21:46:22.473Z,100442.97
2019-05-17T21:51:29.472Z,100438.55
2019-05-17T21:56:33.570Z,100441.95
2019-05-17T22:01:38.284Z,100439.36
2019-05-17T22:06:42.613Z,100435.81
2019-05-17T22:11:46.673Z,100437.06
2019-05-17T22:16:50.706Z,100428.10
2019-05-17T22:21:54.709Z,100423.20
2019-05-17T22:27:00.388Z,100425.61
2019-05-17T22:32:06.253Z,100423.25
2019-05-17T22:37:17.353Z,100425.61
2019-05-17T22:42:22.906Z,100421.72
2019-05-17T22:47:27.552Z,100425.48
2019-05-17T22:52:31.623Z,100420.77
2019-05-17T22:57:35.735Z,100420.27
2019-05-17T23:02:40.217Z,100424.80
2019-05-17T23:07:44.234Z,100422.88
2019-05-17T23:12:48.255Z,100427.77
2019-05-17T23:17:52.412Z,100431.38
2019-05-17T23:22:56.808Z,100432.69
2019-05-17T23:28:01.180Z,100428.63
2019-05-17T23:33:05.196Z,100429.60
2019-05-17T23:38:09.265Z,100427.73
2019-05-17T23:43:13.320Z,100427.59
2019-05-17T23:48:17.314Z,100430.51
2019-05-17T23:53:21.369Z,100429.92
2019-05-17T23:58:25.418Z,100428.18
